Delta Virtual Airport Information Service

Sacramento International Airport

ICAO: KSMF Country: United States
Latitude: 38.6954 Longitude: -121.59
Latest Arrival : DAC664 (KSAN-KSMF) Latest Departure : DAL1432 (1B) (KSMF-KSLC)


WX CaptureLIVE
Data provided by noaa.gov | Fetched at 02:01:54

METAR : KSMF 300653Z 13005KT 10SM FEW200 07/M02 A3003 RMK AO2 SLP169 T00671017 $

TAF : KSMF 300653Z 13005KT 10SM FEW200 07/M02 A3003 RMK AO2 SLP169 T00671017 $


Runway Data for KSMF
Data provided by openaviationdata.com

Runway ID Mag Var Hdg Length Elevation Surface ILS Freq ILS Id ILS Slope
16L 15 165° 8609 ft 28 ft Concrete 111.75 IMDK 3
16R 15 165° 8609 ft 28 ft Asphalt 111.1 ISMF 3
34L 15 345° 8609 ft 28 ft Asphalt 111.1 IHUX 3
34R 15 345° 8609 ft 28 ft Concrete -- -- --

Sacramento International Airport, United States
Use only for reference purposes



Not for navigational purposes.